Terminal Aerodrome Forecast
Issued by NWS Caribou, ME

Home | Current Version | Previous Version | Text Only | Print | Product List | Glossary On
Versions: 1 2 3 4 5 6 7 8 9 10 11 12 13 14 15 16 17 18
000
FTUS41 KCAR 281730
TAFCAR
TAF
KCAR 281730Z 2818/2918 27007KT P6SM -SHRA SCT035 BKN070
      TEMPO 2818/2822 3SM -TSRA SCT025CB OVC050
     FM282200 28008KT P6SM VCSH SCT050 BKN080
     FM282300 27005KT P6SM BKN060
     FM290500 24004KT P6SM SCT060
     FM291700 24008KT P6SM VCSH BKN040=

USA.gov is the U.S. government's official web portal to all federal, state and local government web resources and services.